sensor_id;sensor_type;location;lat;lon;timestamp;P1;durP1;ratioP1;P2;durP2;ratioP2
60306;SDS011;46155;52.364;6.580;2023-03-14T04:02:24;24.43;;;22.70;;
60306;SDS011;46155;52.364;6.580;2023-03-14T04:04:49;25.57;;;23.43;;
60306;SDS011;46155;52.364;6.580;2023-03-14T04:07:14;24.70;;;23.00;;
60306;SDS011;46155;52.364;6.580;2023-03-14T04:09:40;24.40;;;22.27;;
60306;SDS011;46155;52.364;6.580;2023-03-14T04:12:05;22.43;;;20.93;;
60306;SDS011;46155;52.364;6.580;2023-03-14T04:14:31;22.80;;;21.33;;
60306;SDS011;46155;52.364;6.580;2023-03-14T04:16:56;23.50;;;21.30;;
60306;SDS011;46155;52.364;6.580;2023-03-14T04:19:21;24.20;;;22.40;;
60306;SDS011;46155;52.364;6.580;2023-03-14T04:21:47;23.17;;;21.73;;
60306;SDS011;46155;52.364;6.580;2023-03-14T04:24:12;22.70;;;20.63;;
60306;SDS011;46155;52.364;6.580;2023-03-14T04:26:38;24.90;;;23.00;;
60306;SDS011;46155;52.364;6.580;2023-03-14T04:29:03;25.67;;;23.10;;
60306;SDS011;46155;52.364;6.580;2023-03-14T04:31:28;25.30;;;23.70;;
60306;SDS011;46155;52.364;6.580;2023-03-14T04:33:54;24.37;;;22.60;;
60306;SDS011;46155;52.364;6.580;2023-03-14T04:36:19;24.90;;;23.20;;
60306;SDS011;46155;52.364;6.580;2023-03-14T04:38:44;23.87;;;22.00;;
60306;SDS011;46155;52.364;6.580;2023-03-14T04:41:10;23.10;;;21.03;;
60306;SDS011;46155;52.364;6.580;2023-03-14T04:43:35;23.10;;;21.30;;
60306;SDS011;46155;52.364;6.580;2023-03-14T04:46:00;23.37;;;21.80;;
60306;SDS011;46155;52.364;6.580;2023-03-14T04:48:26;24.20;;;22.37;;
60306;SDS011;46155;52.364;6.580;2023-03-14T04:50:52;23.87;;;22.17;;
60306;SDS011;46155;52.364;6.580;2023-03-14T04:53:18;23.73;;;21.90;;
60306;SDS011;46155;52.364;6.580;2023-03-14T04:55:48;22.80;;;21.33;;
60306;SDS011;46155;52.364;6.580;2023-03-14T04:58:14;24.53;;;22.93;;
60306;SDS011;46155;52.364;6.580;2023-03-14T05:00:39;24.03;;;22.03;;
60306;SDS011;46155;52.364;6.580;2023-03-14T05:03:05;23.50;;;21.87;;
60306;SDS011;46155;52.364;6.580;2023-03-14T05:05:30;20.87;;;19.37;;
60306;SDS011;46155;52.364;6.580;2023-03-14T05:07:55;24.33;;;22.47;;
60306;SDS011;46155;52.364;6.580;2023-03-14T05:10:21;21.70;;;20.10;;
60306;SDS011;46155;52.364;6.580;2023-03-14T05:12:46;22.13;;;20.27;;
60306;SDS011;46155;52.364;6.580;2023-03-14T05:15:11;23.30;;;21.13;;
60306;SDS011;46155;52.364;6.580;2023-03-14T05:17:37;21.70;;;20.17;;
60306;SDS011;46155;52.364;6.580;2023-03-14T05:20:02;21.90;;;19.83;;
60306;SDS011;46155;52.364;6.580;2023-03-14T05:22:33;22.57;;;21.07;;
60306;SDS011;46155;52.364;6.580;2023-03-14T05:24:59;22.47;;;20.97;;
60306;SDS011;46155;52.364;6.580;2023-03-14T05:27:24;25.80;;;23.23;;
60306;SDS011;46155;52.364;6.580;2023-03-14T05:29:49;25.37;;;23.13;;
60306;SDS011;46155;52.364;6.580;2023-03-14T05:32:14;25.40;;;23.07;;
60306;SDS011;46155;52.364;6.580;2023-03-14T05:34:40;22.80;;;21.13;;
60306;SDS011;46155;52.364;6.580;2023-03-14T05:37:05;20.83;;;19.43;;
60306;SDS011;46155;52.364;6.580;2023-03-14T05:39:30;25.27;;;21.57;;
60306;SDS011;46155;52.364;6.580;2023-03-14T05:41:56;26.07;;;23.87;;
60306;SDS011;46155;52.364;6.580;2023-03-14T05:44:21;23.93;;;21.83;;
60306;SDS011;46155;52.364;6.580;2023-03-14T05:46:47;23.83;;;22.47;;
60306;SDS011;46155;52.364;6.580;2023-03-14T05:49:12;25.13;;;23.00;;
60306;SDS011;46155;52.364;6.580;2023-03-14T05:51:37;15.67;;;14.77;;
60306;SDS011;46155;52.364;6.580;2023-03-14T05:54:02;14.97;;;13.50;;
60306;SDS011;46155;52.364;6.580;2023-03-14T05:56:28;14.30;;;13.13;;
60306;SDS011;46155;52.364;6.580;2023-03-14T05:58:53;13.77;;;12.70;;
60306;SDS011;46155;52.364;6.580;2023-03-14T06:01:18;12.43;;;11.50;;
60306;SDS011;46155;52.364;6.580;2023-03-14T06:03:44;17.20;;;13.20;;
60306;SDS011;46155;52.364;6.580;2023-03-14T06:06:09;14.63;;;13.20;;
60306;SDS011;46155;52.364;6.580;2023-03-14T06:08:34;14.10;;;12.93;;
60306;SDS011;46155;52.364;6.580;2023-03-14T06:11:02;15.80;;;14.50;;
60306;SDS011;46155;52.364;6.580;2023-03-14T06:13:28;14.30;;;13.20;;
60306;SDS011;46155;52.364;6.580;2023-03-14T06:15:53;14.50;;;13.40;;
60306;SDS011;46155;52.364;6.580;2023-03-14T06:18:18;14.03;;;12.83;;
60306;SDS011;46155;52.364;6.580;2023-03-14T06:20:44;14.13;;;13.07;;
60306;SDS011;46155;52.364;6.580;2023-03-14T06:23:09;14.27;;;12.87;;
60306;SDS011;46155;52.364;6.580;2023-03-14T06:25:35;13.40;;;12.30;;
60306;SDS011;46155;52.364;6.580;2023-03-14T06:28:01;17.53;;;15.87;;
60306;SDS011;46155;52.364;6.580;2023-03-14T06:30:26;15.93;;;13.57;;
60306;SDS011;46155;52.364;6.580;2023-03-14T06:32:52;17.47;;;13.97;;
60306;SDS011;46155;52.364;6.580;2023-03-14T06:35:18;18.53;;;16.77;;
60306;SDS011;46155;52.364;6.580;2023-03-14T06:37:43;18.73;;;15.00;;
60306;SDS011;46155;52.364;6.580;2023-03-14T06:40:09;15.87;;;14.80;;
60306;SDS011;46155;52.364;6.580;2023-03-14T06:42:36;17.37;;;16.27;;
60306;SDS011;46155;52.364;6.580;2023-03-14T06:45:01;17.40;;;15.90;;
60306;SDS011;46155;52.364;6.580;2023-03-14T06:47:28;17.37;;;16.10;;
60306;SDS011;46155;52.364;6.580;2023-03-14T06:49:53;17.93;;;16.33;;
60306;SDS011;46155;52.364;6.580;2023-03-14T06:52:18;18.20;;;16.57;;
60306;SDS011;46155;52.364;6.580;2023-03-14T06:54:44;18.07;;;16.03;;
60306;SDS011;46155;52.364;6.580;2023-03-14T06:57:09;17.23;;;16.00;;
60306;SDS011;46155;52.364;6.580;2023-03-14T06:59:34;18.53;;;16.90;;
60306;SDS011;46155;52.364;6.580;2023-03-14T07:01:59;18.90;;;17.63;;
60306;SDS011;46155;52.364;6.580;2023-03-14T07:04:25;18.13;;;17.03;;
60306;SDS011;46155;52.364;6.580;2023-03-14T07:06:50;21.30;;;15.63;;
60306;SDS011;46155;52.364;6.580;2023-03-14T07:09:15;17.33;;;15.80;;
60306;SDS011;46155;52.364;6.580;2023-03-14T07:11:42;17.43;;;16.20;;
60306;SDS011;46155;52.364;6.580;2023-03-14T07:14:07;18.33;;;17.10;;
60306;SDS011;46155;52.364;6.580;2023-03-14T07:16:33;18.53;;;17.30;;
60306;SDS011;46155;52.364;6.580;2023-03-14T07:18:59;19.43;;;18.00;;
60306;SDS011;46155;52.364;6.580;2023-03-14T07:21:25;21.03;;;18.47;;
60306;SDS011;46155;52.364;6.580;2023-03-14T07:23:50;20.40;;;18.73;;
60306;SDS011;46155;52.364;6.580;2023-03-14T07:26:16;18.93;;;17.70;;
60306;SDS011;46155;52.364;6.580;2023-03-14T07:28:41;19.80;;;18.17;;
60306;SDS011;46155;52.364;6.580;2023-03-14T07:31:06;21.83;;;19.63;;
60306;SDS011;46155;52.364;6.580;2023-03-14T07:33:32;21.47;;;19.73;;
60306;SDS011;46155;52.364;6.580;2023-03-14T07:35:57;21.07;;;19.10;;
60306;SDS011;46155;52.364;6.580;2023-03-14T07:38:23;22.10;;;20.40;;
60306;SDS011;46155;52.364;6.580;2023-03-14T07:40:48;22.00;;;20.23;;
60306;SDS011;46155;52.364;6.580;2023-03-14T07:43:14;23.00;;;21.43;;
60306;SDS011;46155;52.364;6.580;2023-03-14T07:45:39;23.47;;;21.47;;
60306;SDS011;46155;52.364;6.580;2023-03-14T07:48:04;23.13;;;21.10;;
60306;SDS011;46155;52.364;6.580;2023-03-14T07:50:30;22.70;;;20.90;;
60306;SDS011;46155;52.364;6.580;2023-03-14T07:52:55;23.13;;;21.67;;
60306;SDS011;46155;52.364;6.580;2023-03-14T07:55:20;12.50;;;11.90;;
60306;SDS011;46155;52.364;6.580;2023-03-14T07:57:46;12.17;;;11.60;;
60306;SDS011;46155;52.364;6.580;2023-03-14T08:00:12;12.33;;;11.83;;
60306;SDS011;46155;52.364;6.580;2023-03-14T08:02:39;13.90;;;12.87;;
60306;SDS011;46155;52.364;6.580;2023-03-14T08:05:05;11.50;;;10.90;;
60306;SDS011;46155;52.364;6.580;2023-03-14T08:07:30;12.97;;;12.37;;
60306;SDS011;46155;52.364;6.580;2023-03-14T08:09:56;14.50;;;13.63;;
60306;SDS011;46155;52.364;6.580;2023-03-14T08:12:21;15.20;;;14.50;;
60306;SDS011;46155;52.364;6.580;2023-03-14T08:14:46;13.67;;;13.07;;
60306;SDS011;46155;52.364;6.580;2023-03-14T08:17:11;14.23;;;13.53;;
60306;SDS011;46155;52.364;6.580;2023-03-14T08:19:37;15.87;;;14.67;;
60306;SDS011;46155;52.364;6.580;2023-03-14T08:22:02;13.77;;;13.10;;
60306;SDS011;46155;52.364;6.580;2023-03-14T08:24:28;14.60;;;13.70;;
60306;SDS011;46155;52.364;6.580;2023-03-14T08:26:53;14.30;;;13.60;;
60306;SDS011;46155;52.364;6.580;2023-03-14T08:29:18;15.47;;;14.00;;
60306;SDS011;46155;52.364;6.580;2023-03-14T08:31:44;14.03;;;13.33;;
60306;SDS011;46155;52.364;6.580;2023-03-14T08:34:09;13.70;;;12.97;;
60306;SDS011;46155;52.364;6.580;2023-03-14T08:36:34;12.13;;;11.33;;
60306;SDS011;46155;52.364;6.580;2023-03-14T08:39:00;12.57;;;11.77;;
60306;SDS011;46155;52.364;6.580;2023-03-14T08:41:25;10.70;;;10.13;;
60306;SDS011;46155;52.364;6.580;2023-03-14T08:43:51;10.50;;;9.80;;
60306;SDS011;46155;52.364;6.580;2023-03-14T08:46:16;11.90;;;11.13;;
60306;SDS011;46155;52.364;6.580;2023-03-14T08:48:41;11.60;;;10.50;;
60306;SDS011;46155;52.364;6.580;2023-03-14T08:51:11;11.70;;;10.90;;
60306;SDS011;46155;52.364;6.580;2023-03-14T08:53:38;11.60;;;9.73;;
60306;SDS011;46155;52.364;6.580;2023-03-14T08:56:04;10.30;;;9.60;;
60306;SDS011;46155;52.364;6.580;2023-03-14T08:58:31;10.50;;;9.80;;
60306;SDS011;46155;52.364;6.580;2023-03-14T09:00:56;9.60;;;8.93;;
60306;SDS011;46155;52.364;6.580;2023-03-14T09:03:22;9.63;;;9.03;;
60306;SDS011;46155;52.364;6.580;2023-03-14T09:05:49;10.23;;;9.73;;
60306;SDS011;46155;52.364;6.580;2023-03-14T09:08:14;10.77;;;10.17;;
60306;SDS011;46155;52.364;6.580;2023-03-14T09:10:40;10.43;;;9.93;;
60306;SDS011;46155;52.364;6.580;2023-03-14T09:13:05;9.73;;;9.23;;
60306;SDS011;46155;52.364;6.580;2023-03-14T09:15:31;10.33;;;9.83;;
60306;SDS011;46155;52.364;6.580;2023-03-14T09:17:57;9.87;;;9.37;;
60306;SDS011;46155;52.364;6.580;2023-03-14T09:20:23;9.40;;;8.90;;
60306;SDS011;46155;52.364;6.580;2023-03-14T09:22:48;8.13;;;7.73;;
60306;SDS011;46155;52.364;6.580;2023-03-14T09:25:13;8.13;;;7.47;;
60306;SDS011;46155;52.364;6.580;2023-03-14T09:27:38;8.60;;;8.13;;
60306;SDS011;46155;52.364;6.580;2023-03-14T09:30:04;8.90;;;8.23;;
60306;SDS011;46155;52.364;6.580;2023-03-14T09:32:30;9.60;;;9.10;;
60306;SDS011;46155;52.364;6.580;2023-03-14T09:34:56;8.27;;;7.77;;
60306;SDS011;46155;52.364;6.580;2023-03-14T09:37:22;8.30;;;7.70;;
60306;SDS011;46155;52.364;6.580;2023-03-14T09:39:47;8.13;;;7.63;;
60306;SDS011;46155;52.364;6.580;2023-03-14T09:42:13;9.30;;;8.53;;
60306;SDS011;46155;52.364;6.580;2023-03-14T09:44:53;8.67;;;8.20;;
60306;SDS011;46155;52.364;6.580;2023-03-14T09:47:20;8.83;;;8.27;;
60306;SDS011;46155;52.364;6.580;2023-03-14T09:49:46;8.63;;;7.40;;
60306;SDS011;46155;52.364;6.580;2023-03-14T09:52:13;8.40;;;7.53;;
60306;SDS011;46155;52.364;6.580;2023-03-14T09:54:47;7.97;;;7.27;;
60306;SDS011;46155;52.364;6.580;2023-03-14T09:57:15;8.90;;;8.40;;
60306;SDS011;46155;52.364;6.580;2023-03-14T09:59:44;8.30;;;7.47;;
60306;SDS011;46155;52.364;6.580;2023-03-14T10:02:15;8.07;;;7.13;;
60306;SDS011;46155;52.364;6.580;2023-03-14T10:04:41;7.93;;;7.20;;
60306;SDS011;46155;52.364;6.580;2023-03-14T10:07:16;7.53;;;6.83;;
60306;SDS011;46155;52.364;6.580;2023-03-14T10:09:55;8.57;;;8.07;;
60306;SDS011;46155;52.364;6.580;2023-03-14T10:12:36;7.53;;;7.03;;
60306;SDS011;46155;52.364;6.580;2023-03-14T10:15:07;8.03;;;6.73;;
60306;SDS011;46155;52.364;6.580;2023-03-14T10:17:39;8.13;;;7.43;;
60306;SDS011;46155;52.364;6.580;2023-03-14T10:20:05;11.57;;;6.67;;
60306;SDS011;46155;52.364;6.580;2023-03-14T10:22:31;8.67;;;7.17;;
60306;SDS011;46155;52.364;6.580;2023-03-14T10:25:00;13.97;;;6.30;;
60306;SDS011;46155;52.364;6.580;2023-03-14T10:27:44;11.57;;;6.27;;
60306;SDS011;46155;52.364;6.580;2023-03-14T10:30:14;8.30;;;7.43;;
60306;SDS011;46155;52.364;6.580;2023-03-14T10:32:54;11.63;;;6.80;;
60306;SDS011;46155;52.364;6.580;2023-03-14T10:35:20;7.97;;;6.03;;
60306;SDS011;46155;52.364;6.580;2023-03-14T10:37:55;9.50;;;5.80;;
60306;SDS011;46155;52.364;6.580;2023-03-14T10:40:47;13.50;;;5.23;;
60306;SDS011;46155;52.364;6.580;2023-03-14T10:43:18;13.77;;;5.80;;
60306;SDS011;46155;52.364;6.580;2023-03-14T10:45:56;9.00;;;5.27;;
60306;SDS011;46155;52.364;6.580;2023-03-14T10:48:31;12.43;;;6.33;;
60306;SDS011;46155;52.364;6.580;2023-03-14T10:51:08;14.67;;;5.90;;
60306;SDS011;46155;52.364;6.580;2023-03-14T10:53:42;6.57;;;5.90;;
60306;SDS011;46155;52.364;6.580;2023-03-14T10:56:33;12.63;;;5.70;;
60306;SDS011;46155;52.364;6.580;2023-03-14T10:59:01;8.90;;;6.33;;
60306;SDS011;46155;52.364;6.580;2023-03-14T11:06:50;11.20;;;6.07;;
60306;SDS011;46155;52.364;6.580;2023-03-14T11:12:29;26.70;;;7.70;;
60306;SDS011;46155;52.364;6.580;2023-03-14T11:15:25;19.83;;;7.37;;
60306;SDS011;46155;52.364;6.580;2023-03-14T11:30:55;23.83;;;5.47;;
60306;SDS011;46155;52.364;6.580;2023-03-14T11:33:38;13.20;;;6.80;;
60306;SDS011;46155;52.364;6.580;2023-03-14T11:36:10;13.70;;;6.03;;
60306;SDS011;46155;52.364;6.580;2023-03-14T11:38:46;29.00;;;5.77;;
60306;SDS011;46155;52.364;6.580;2023-03-14T11:41:14;29.27;;;6.93;;
60306;SDS011;46155;52.364;6.580;2023-03-14T11:43:47;19.13;;;6.43;;
60306;SDS011;46155;52.364;6.580;2023-03-14T11:49:01;11.30;;;5.87;;
60306;SDS011;46155;52.364;6.580;2023-03-14T11:51:38;16.00;;;5.63;;
60306;SDS011;46155;52.364;6.580;2023-03-14T11:54:16;21.70;;;5.60;;
60306;SDS011;46155;52.364;6.580;2023-03-14T11:59:21;9.53;;;4.60;;
60306;SDS011;46155;52.364;6.580;2023-03-14T12:02:05;13.00;;;4.40;;
60306;SDS011;46155;52.364;6.580;2023-03-14T12:10:36;12.73;;;4.30;;
60306;SDS011;46155;52.364;6.580;2023-03-14T12:13:04;13.70;;;4.83;;
60306;SDS011;46155;52.364;6.580;2023-03-14T12:15:36;5.27;;;3.97;;
60306;SDS011;46155;52.364;6.580;2023-03-14T12:18:25;15.70;;;6.87;;
60306;SDS011;46155;52.364;6.580;2023-03-14T12:20:57;19.80;;;4.40;;
60306;SDS011;46155;52.364;6.580;2023-03-14T12:23:25;8.07;;;4.60;;
60306;SDS011;46155;52.364;6.580;2023-03-14T12:28:38;11.80;;;4.50;;
60306;SDS011;46155;52.364;6.580;2023-03-14T12:34:24;12.63;;;4.40;;
60306;SDS011;46155;52.364;6.580;2023-03-14T12:44:42;16.37;;;4.83;;
60306;SDS011;46155;52.364;6.580;2023-03-14T12:49:41;13.03;;;4.40;;
60306;SDS011;46155;52.364;6.580;2023-03-14T12:52:12;10.60;;;4.17;;
60306;SDS011;46155;52.364;6.580;2023-03-14T12:57:36;10.70;;;4.83;;
60306;SDS011;46155;52.364;6.580;2023-03-14T13:00:34;6.10;;;4.33;;
60306;SDS011;46155;52.364;6.580;2023-03-14T13:05:59;8.63;;;4.43;;
60306;SDS011;46155;52.364;6.580;2023-03-14T13:11:01;7.40;;;4.60;;
60306;SDS011;46155;52.364;6.580;2023-03-14T13:13:30;6.17;;;4.00;;
60306;SDS011;46155;52.364;6.580;2023-03-14T13:16:00;7.83;;;3.87;;
60306;SDS011;46155;52.364;6.580;2023-03-14T13:18:39;4.13;;;3.33;;
60306;SDS011;46155;52.364;6.580;2023-03-14T13:21:09;5.27;;;3.67;;
60306;SDS011;46155;52.364;6.580;2023-03-14T13:23:39;13.43;;;4.13;;
60306;SDS011;46155;52.364;6.580;2023-03-14T13:26:10;3.37;;;3.03;;
60306;SDS011;46155;52.364;6.580;2023-03-14T13:28:38;7.83;;;4.07;;
60306;SDS011;46155;52.364;6.580;2023-03-14T13:31:04;15.00;;;3.70;;
60306;SDS011;46155;52.364;6.580;2023-03-14T13:33:31;11.20;;;3.73;;
60306;SDS011;46155;52.364;6.580;2023-03-14T13:35:58;5.87;;;3.47;;
60306;SDS011;46155;52.364;6.580;2023-03-14T13:38:28;9.13;;;3.97;;
60306;SDS011;46155;52.364;6.580;2023-03-14T13:40:56;9.83;;;4.50;;
60306;SDS011;46155;52.364;6.580;2023-03-14T13:43:27;7.13;;;3.30;;
60306;SDS011;46155;52.364;6.580;2023-03-14T13:48:32;11.23;;;4.30;;
60306;SDS011;46155;52.364;6.580;2023-03-14T13:51:06;7.97;;;4.43;;
60306;SDS011;46155;52.364;6.580;2023-03-14T13:53:49;9.10;;;4.17;;
60306;SDS011;46155;52.364;6.580;2023-03-14T13:56:15;6.17;;;4.50;;
60306;SDS011;46155;52.364;6.580;2023-03-14T13:58:42;11.83;;;3.70;;
60306;SDS011;46155;52.364;6.580;2023-03-14T14:03:56;7.60;;;3.53;;
60306;SDS011;46155;52.364;6.580;2023-03-14T14:06:30;9.07;;;3.87;;
60306;SDS011;46155;52.364;6.580;2023-03-14T14:08:59;8.93;;;3.57;;
60306;SDS011;46155;52.364;6.580;2023-03-14T14:14:10;13.60;;;3.90;;
60306;SDS011;46155;52.364;6.580;2023-03-14T14:16:41;3.90;;;3.70;;
60306;SDS011;46155;52.364;6.580;2023-03-14T14:19:08;9.70;;;3.60;;
60306;SDS011;46155;52.364;6.580;2023-03-14T14:21:34;10.73;;;3.80;;
60306;SDS011;46155;52.364;6.580;2023-03-14T14:23:59;6.63;;;3.40;;
60306;SDS011;46155;52.364;6.580;2023-03-14T14:26:25;7.20;;;3.60;;
60306;SDS011;46155;52.364;6.580;2023-03-14T14:29:01;6.73;;;3.50;;
60306;SDS011;46155;52.364;6.580;2023-03-14T14:31:31;5.53;;;3.80;;
60306;SDS011;46155;52.364;6.580;2023-03-14T14:33:57;4.10;;;3.40;;
60306;SDS011;46155;52.364;6.580;2023-03-14T14:41:29;4.17;;;3.70;;
60306;SDS011;46155;52.364;6.580;2023-03-14T14:43:56;7.90;;;3.70;;
60306;SDS011;46155;52.364;6.580;2023-03-14T14:46:25;5.53;;;3.63;;
60306;SDS011;46155;52.364;6.580;2023-03-14T14:48:55;5.17;;;3.33;;
60306;SDS011;46155;52.364;6.580;2023-03-14T14:51:22;5.60;;;3.60;;
60306;SDS011;46155;52.364;6.580;2023-03-14T14:53:50;5.03;;;3.70;;
60306;SDS011;46155;52.364;6.580;2023-03-14T14:56:26;6.47;;;3.67;;
60306;SDS011;46155;52.364;6.580;2023-03-14T14:58:59;13.43;;;4.30;;
60306;SDS011;46155;52.364;6.580;2023-03-14T15:01:32;5.20;;;3.03;;
60306;SDS011;46155;52.364;6.580;2023-03-14T15:04:00;16.97;;;4.27;;
60306;SDS011;46155;52.364;6.580;2023-03-14T15:06:28;13.37;;;5.10;;
60306;SDS011;46155;52.364;6.580;2023-03-14T15:08:55;10.50;;;3.50;;
60306;SDS011;46155;52.364;6.580;2023-03-14T15:11:22;9.73;;;3.23;;
60306;SDS011;46155;52.364;6.580;2023-03-14T15:13:50;6.37;;;3.13;;
60306;SDS011;46155;52.364;6.580;2023-03-14T15:16:17;14.00;;;4.40;;
60306;SDS011;46155;52.364;6.580;2023-03-14T15:18:44;16.50;;;5.70;;
60306;SDS011;46155;52.364;6.580;2023-03-14T15:21:14;8.10;;;3.57;;
60306;SDS011;46155;52.364;6.580;2023-03-14T15:23:39;6.63;;;3.03;;
60306;SDS011;46155;52.364;6.580;2023-03-14T15:26:08;9.77;;;3.80;;
60306;SDS011;46155;52.364;6.580;2023-03-14T15:28:38;6.03;;;3.47;;
60306;SDS011;46155;52.364;6.580;2023-03-14T15:31:03;6.00;;;3.27;;
60306;SDS011;46155;52.364;6.580;2023-03-14T15:33:29;5.53;;;3.10;;
60306;SDS011;46155;52.364;6.580;2023-03-14T15:35:54;5.17;;;3.20;;
60306;SDS011;46155;52.364;6.580;2023-03-14T15:38:21;15.17;;;3.93;;
60306;SDS011;46155;52.364;6.580;2023-03-14T15:40:51;8.13;;;3.70;;
60306;SDS011;46155;52.364;6.580;2023-03-14T15:43:17;6.40;;;3.30;;
60306;SDS011;46155;52.364;6.580;2023-03-14T15:45:43;12.27;;;3.57;;
60306;SDS011;46155;52.364;6.580;2023-03-14T15:48:14;8.27;;;4.10;;
60306;SDS011;46155;52.364;6.580;2023-03-14T15:50:41;8.90;;;4.10;;
60306;SDS011;46155;52.364;6.580;2023-03-14T15:53:07;4.70;;;3.60;;
60306;SDS011;46155;52.364;6.580;2023-03-14T15:55:32;9.07;;;3.67;;
60306;SDS011;46155;52.364;6.580;2023-03-14T15:57:57;11.90;;;3.73;;
60306;SDS011;46155;52.364;6.580;2023-03-14T16:00:24;9.40;;;3.87;;
60306;SDS011;46155;52.364;6.580;2023-03-14T16:02:49;13.07;;;5.17;;
60306;SDS011;46155;52.364;6.580;2023-03-14T16:05:15;6.27;;;4.10;;
60306;SDS011;46155;52.364;6.580;2023-03-14T16:07:41;7.80;;;3.73;;
60306;SDS011;46155;52.364;6.580;2023-03-14T16:10:07;10.87;;;2.87;;
60306;SDS011;46155;52.364;6.580;2023-03-14T16:12:33;8.70;;;3.67;;
60306;SDS011;46155;52.364;6.580;2023-03-14T16:14:59;9.80;;;3.60;;
60306;SDS011;46155;52.364;6.580;2023-03-14T16:17:25;22.03;;;3.97;;
60306;SDS011;46155;52.364;6.580;2023-03-14T16:19:50;7.73;;;3.47;;
60306;SDS011;46155;52.364;6.580;2023-03-14T16:22:15;13.73;;;3.57;;
60306;SDS011;46155;52.364;6.580;2023-03-14T16:24:41;10.23;;;3.40;;
60306;SDS011;46155;52.364;6.580;2023-03-14T16:27:06;3.50;;;3.20;;
60306;SDS011;46155;52.364;6.580;2023-03-14T16:29:31;5.07;;;3.53;;
60306;SDS011;46155;52.364;6.580;2023-03-14T16:31:57;4.90;;;3.47;;
60306;SDS011;46155;52.364;6.580;2023-03-14T16:34:22;12.83;;;3.37;;
60306;SDS011;46155;52.364;6.580;2023-03-14T16:36:47;5.60;;;3.20;;
60306;SDS011;46155;52.364;6.580;2023-03-14T16:39:16;10.37;;;3.57;;
60306;SDS011;46155;52.364;6.580;2023-03-14T16:41:42;4.13;;;3.17;;
60306;SDS011;46155;52.364;6.580;2023-03-14T16:44:07;8.13;;;3.20;;
60306;SDS011;46155;52.364;6.580;2023-03-14T16:46:32;5.47;;;3.07;;
60306;SDS011;46155;52.364;6.580;2023-03-14T16:48:58;7.33;;;3.17;;
60306;SDS011;46155;52.364;6.580;2023-03-14T16:51:23;6.20;;;3.07;;
60306;SDS011;46155;52.364;6.580;2023-03-14T16:53:49;8.27;;;3.33;;
60306;SDS011;46155;52.364;6.580;2023-03-14T16:56:15;13.53;;;4.23;;
60306;SDS011;46155;52.364;6.580;2023-03-14T16:58:40;10.57;;;3.70;;
60306;SDS011;46155;52.364;6.580;2023-03-14T17:01:06;4.57;;;2.97;;
60306;SDS011;46155;52.364;6.580;2023-03-14T17:03:36;9.80;;;3.37;;
60306;SDS011;46155;52.364;6.580;2023-03-14T17:06:20;5.97;;;3.60;;
60306;SDS011;46155;52.364;6.580;2023-03-14T17:08:48;4.73;;;3.13;;
60306;SDS011;46155;52.364;6.580;2023-03-14T17:11:14;7.50;;;3.67;;
60306;SDS011;46155;52.364;6.580;2023-03-14T17:13:40;5.17;;;3.57;;
60306;SDS011;46155;52.364;6.580;2023-03-14T17:16:06;7.43;;;3.67;;
60306;SDS011;46155;52.364;6.580;2023-03-14T17:18:31;15.87;;;3.80;;
60306;SDS011;46155;52.364;6.580;2023-03-14T17:20:57;13.17;;;4.03;;
60306;SDS011;46155;52.364;6.580;2023-03-14T17:23:23;8.63;;;4.03;;
60306;SDS011;46155;52.364;6.580;2023-03-14T17:25:50;6.77;;;3.50;;
60306;SDS011;46155;52.364;6.580;2023-03-14T17:28:16;11.90;;;3.97;;
60306;SDS011;46155;52.364;6.580;2023-03-14T17:30:42;15.37;;;5.33;;
60306;SDS011;46155;52.364;6.580;2023-03-14T17:33:08;11.90;;;4.43;;
60306;SDS011;46155;52.364;6.580;2023-03-14T17:35:33;5.47;;;3.93;;
60306;SDS011;46155;52.364;6.580;2023-03-14T17:37:59;8.97;;;4.47;;
60306;SDS011;46155;52.364;6.580;2023-03-14T17:40:24;12.87;;;4.27;;
60306;SDS011;46155;52.364;6.580;2023-03-14T17:42:50;9.10;;;4.57;;
60306;SDS011;46155;52.364;6.580;2023-03-14T17:45:15;9.97;;;4.07;;
60306;SDS011;46155;52.364;6.580;2023-03-14T17:47:41;11.83;;;4.43;;
60306;SDS011;46155;52.364;6.580;2023-03-14T17:50:07;15.43;;;4.13;;
60306;SDS011;46155;52.364;6.580;2023-03-14T17:52:33;5.73;;;4.53;;
60306;SDS011;46155;52.364;6.580;2023-03-14T17:55:00;8.63;;;4.30;;
60306;SDS011;46155;52.364;6.580;2023-03-14T17:57:26;11.50;;;4.07;;
60306;SDS011;46155;52.364;6.580;2023-03-14T17:59:52;9.70;;;4.77;;
60306;SDS011;46155;52.364;6.580;2023-03-14T18:02:18;11.73;;;4.40;;
60306;SDS011;46155;52.364;6.580;2023-03-14T18:04:44;10.00;;;5.17;;
60306;SDS011;46155;52.364;6.580;2023-03-14T18:07:09;7.80;;;4.73;;
60306;SDS011;46155;52.364;6.580;2023-03-14T18:09:36;10.60;;;6.00;;
60306;SDS011;46155;52.364;6.580;2023-03-14T18:12:01;11.53;;;4.40;;
60306;SDS011;46155;52.364;6.580;2023-03-14T18:14:27;10.33;;;5.10;;
60306;SDS011;46155;52.364;6.580;2023-03-14T18:16:52;13.77;;;4.67;;
60306;SDS011;46155;52.364;6.580;2023-03-14T18:19:18;7.90;;;4.47;;
60306;SDS011;46155;52.364;6.580;2023-03-14T18:21:44;8.67;;;4.87;;
60306;SDS011;46155;52.364;6.580;2023-03-14T18:24:11;10.90;;;4.70;;
60306;SDS011;46155;52.364;6.580;2023-03-14T18:26:36;7.27;;;5.10;;
60306;SDS011;46155;52.364;6.580;2023-03-14T18:29:02;18.40;;;5.87;;
60306;SDS011;46155;52.364;6.580;2023-03-14T18:31:28;13.73;;;4.90;;
60306;SDS011;46155;52.364;6.580;2023-03-14T18:33:54;11.10;;;5.80;;
60306;SDS011;46155;52.364;6.580;2023-03-14T18:36:20;8.80;;;6.47;;
60306;SDS011;46155;52.364;6.580;2023-03-14T18:38:46;8.43;;;5.20;;
60306;SDS011;46155;52.364;6.580;2023-03-14T18:41:15;10.73;;;5.50;;
60306;SDS011;46155;52.364;6.580;2023-03-14T18:43:42;9.60;;;4.83;;
60306;SDS011;46155;52.364;6.580;2023-03-14T18:46:11;4.47;;;4.07;;
60306;SDS011;46155;52.364;6.580;2023-03-14T18:48:37;12.30;;;5.17;;
60306;SDS011;46155;52.364;6.580;2023-03-14T18:51:06;6.13;;;5.07;;
60306;SDS011;46155;52.364;6.580;2023-03-14T18:53:36;8.67;;;5.33;;
60306;SDS011;46155;52.364;6.580;2023-03-14T18:56:02;7.07;;;5.87;;
60306;SDS011;46155;52.364;6.580;2023-03-14T18:58:28;9.87;;;5.33;;
60306;SDS011;46155;52.364;6.580;2023-03-14T19:00:57;14.27;;;5.33;;
60306;SDS011;46155;52.364;6.580;2023-03-14T19:03:24;10.03;;;4.23;;
60306;SDS011;46155;52.364;6.580;2023-03-14T19:05:50;8.13;;;4.20;;
60306;SDS011;46155;52.364;6.580;2023-03-14T19:08:16;11.97;;;4.23;;
60306;SDS011;46155;52.364;6.580;2023-03-14T19:10:41;8.77;;;4.30;;
60306;SDS011;46155;52.364;6.580;2023-03-14T19:13:07;5.03;;;4.40;;
60306;SDS011;46155;52.364;6.580;2023-03-14T19:15:32;5.23;;;4.70;;
60306;SDS011;46155;52.364;6.580;2023-03-14T19:17:57;7.43;;;4.80;;
60306;SDS011;46155;52.364;6.580;2023-03-14T19:20:23;12.27;;;5.20;;
60306;SDS011;46155;52.364;6.580;2023-03-14T19:22:48;8.50;;;5.03;;
60306;SDS011;46155;52.364;6.580;2023-03-14T19:25:14;8.87;;;5.00;;
60306;SDS011;46155;52.364;6.580;2023-03-14T19:27:39;14.37;;;5.33;;
60306;SDS011;46155;52.364;6.580;2023-03-14T19:30:05;5.93;;;4.97;;
60306;SDS011;46155;52.364;6.580;2023-03-14T19:32:31;5.30;;;4.30;;
60306;SDS011;46155;52.364;6.580;2023-03-14T19:34:56;10.63;;;3.93;;
60306;SDS011;46155;52.364;6.580;2023-03-14T19:37:21;5.67;;;4.30;;
60306;SDS011;46155;52.364;6.580;2023-03-14T19:39:46;9.90;;;5.17;;
60306;SDS011;46155;52.364;6.580;2023-03-14T19:42:12;5.00;;;4.57;;
60306;SDS011;46155;52.364;6.580;2023-03-14T19:44:38;5.60;;;5.10;;
60306;SDS011;46155;52.364;6.580;2023-03-14T19:47:03;5.47;;;4.13;;
60306;SDS011;46155;52.364;6.580;2023-03-14T19:49:30;7.97;;;4.83;;